createdAt,value
2024-02-13T00:03:49.608Z,99528.97
2024-02-13T00:08:50.986Z,99551.03
2024-02-13T00:13:52.742Z,99552.34
2024-02-13T00:18:54.101Z,99547.72
2024-02-13T00:23:56.478Z,99566.09
2024-02-13T00:28:57.840Z,99564.16
2024-02-13T00:33:59.193Z,99579.75
2024-02-13T00:39:01.903Z,99575.31
2024-02-13T00:44:03.296Z,99575.28
2024-02-13T00:49:05.145Z,99590.97
2024-02-13T00:54:07.056Z,99598.88
2024-02-13T00:59:08.781Z,99598.88
2024-02-13T01:04:10.181Z,99597.34
2024-02-13T01:09:11.535Z,99605.72
2024-02-13T01:14:12.882Z,99607.16
2024-02-13T01:19:14.491Z,99610.41
2024-02-13T01:24:16.190Z,99611.72
2024-02-13T01:29:17.598Z,99617.44
2024-02-13T01:34:19.629Z,99628.38
2024-02-13T01:39:23.402Z,99623.69
2024-02-13T01:44:25.400Z,99625.03
2024-02-13T01:49:29.319Z,99634.69
2024-02-13T01:54:31.291Z,99634.84
2024-02-13T01:59:33.128Z,99636.69
2024-02-13T02:04:34.503Z,99639.72
2024-02-13T02:09:35.997Z,99651.19
2024-02-13T02:14:39.599Z,99649.34
2024-02-13T02:19:40.978Z,99656.22
2024-02-13T02:24:42.305Z,99666.34
2024-02-13T02:29:43.659Z,99673.94
2024-02-13T02:34:44.994Z,99668.16
2024-02-13T02:39:46.298Z,99675.69
2024-02-13T02:44:47.644Z,99682.44
2024-02-13T02:49:48.972Z,99693.84
2024-02-13T02:54:50.271Z,99702.38
2024-02-13T02:59:51.623Z,99721.03
2024-02-13T03:04:53.694Z,99721.72
2024-02-13T03:09:54.988Z,99736.56
2024-02-13T03:14:57.058Z,99735.69
2024-02-13T03:19:58.524Z,99751.69
2024-02-13T03:25:02.735Z,99760.91
2024-02-13T03:30:05.971Z,99769.47
2024-02-13T03:35:07.499Z,99775.53
2024-02-13T03:40:09.688Z,99794.50
2024-02-13T03:45:11.363Z,99809.81
2024-02-13T03:50:13.155Z,99791.63
2024-02-13T03:55:14.503Z,99815.75
2024-02-13T04:00:16.077Z,99832.59
2024-02-13T04:05:17.441Z,99828.56
2024-02-13T04:10:18.889Z,99830.69
2024-02-13T04:15:20.264Z,99838.78
2024-02-13T04:20:21.682Z,99844.59
2024-02-13T04:25:23.140Z,99856.41
2024-02-13T04:30:24.430Z,99861.59
2024-02-13T04:35:25.792Z,99864.09
2024-02-13T04:40:27.131Z,99872.84
2024-02-13T04:45:28.631Z,99869.94
2024-02-13T04:50:29.976Z,99887.59
2024-02-13T04:55:33.726Z,99899.69
2024-02-13T05:00:38.191Z,99906.41
2024-02-13T05:05:58.056Z,99906.97
2024-02-13T05:10:59.434Z,99908.00
2024-02-13T05:16:01.638Z,99922.75
2024-02-13T05:21:04.245Z,99916.03
2024-02-13T05:26:08.777Z,99923.91
2024-02-13T05:31:10.078Z,99937.06
2024-02-13T05:36:11.593Z,99945.28
2024-02-13T05:41:13.212Z,99954.22
2024-02-13T05:46:14.873Z,99963.78
2024-02-13T05:51:16.457Z,99972.00
2024-02-13T05:56:26.738Z,99976.91
2024-02-13T06:01:32.850Z,99987.56
2024-02-13T06:06:37.362Z,99990.56
2024-02-13T06:11:38.765Z,99998.84
2024-02-13T06:16:40.172Z,100008.41
2024-02-13T06:21:41.599Z,100012.31
2024-02-13T06:26:45.832Z,100031.22
2024-02-13T06:31:47.154Z,100031.47
2024-02-13T06:36:48.973Z,100033.09
2024-02-13T06:41:50.433Z,100037.63
2024-02-13T06:46:52.234Z,100056.59
2024-02-13T06:51:53.525Z,100054.38
2024-02-13T06:56:54.944Z,100064.88
2024-02-13T07:01:56.302Z,100074.78
2024-02-13T07:07:08.712Z,100076.91
2024-02-13T07:12:21.070Z,100080.25
2024-02-13T07:17:22.561Z,100087.28
2024-02-13T07:22:23.955Z,100095.50
2024-02-13T07:27:25.473Z,100103.31
2024-02-13T07:32:26.938Z,100100.81
2024-02-13T07:37:28.587Z,100114.66
2024-02-13T07:42:30.173Z,100112.75
2024-02-13T07:47:31.767Z,100124.84
2024-02-13T07:52:33.909Z,100129.50
2024-02-13T07:57:36.130Z,100138.53
2024-02-13T08:02:37.605Z,100144.84
2024-02-13T08:07:38.962Z,100151.66
2024-02-13T08:12:40.386Z,100145.22
2024-02-13T08:17:41.776Z,100151.78
2024-02-13T08:22:43.130Z,100153.59
2024-02-13T08:27:44.460Z,100152.19
2024-02-13T08:32:46.730Z,100152.13
2024-02-13T08:37:48.819Z,100148.75
2024-02-13T08:42:50.175Z,100159.69
2024-02-13T08:47:51.560Z,100164.69
2024-02-13T08:52:53.221Z,100165.75
2024-02-13T08:57:54.551Z,100163.09
2024-02-13T09:02:56.020Z,100170.84
2024-02-13T09:07:57.317Z,100182.81
2024-02-13T09:12:58.705Z,100185.31
2024-02-13T09:18:00.289Z,100193.94
2024-02-13T09:23:01.709Z,100185.38
2024-02-13T09:28:03.008Z,100189.34
2024-02-13T09:33:05.078Z,100193.59
2024-02-13T09:38:07.815Z,100200.53
2024-02-13T09:43:09.625Z,100196.84
2024-02-13T09:48:20.133Z,100205.63
2024-02-13T09:53:28.027Z,100202.38
2024-02-13T09:58:30.603Z,100210.22
2024-02-13T10:03:32.076Z,100218.25
2024-02-13T10:08:35.884Z,100201.66
2024-02-13T10:13:45.215Z,100206.88
2024-02-13T10:18:52.998Z,100215.53
2024-02-13T10:24:13.634Z,100208.97
2024-02-13T10:29:15.389Z,100213.03
2024-02-13T10:34:16.699Z,100213.63
2024-02-13T10:39:18.006Z,100218.75
2024-02-13T10:44:22.954Z,100224.25
2024-02-13T10:49:44.048Z,100217.19
2024-02-13T10:54:47.193Z,100226.16
2024-02-13T10:59:48.857Z,100227.66
2024-02-13T11:04:50.667Z,100212.00
2024-02-13T11:09:53.881Z,100206.81
2024-02-13T11:14:55.181Z,100209.88
2024-02-13T11:19:59.839Z,100202.81
2024-02-13T11:25:07.056Z,100210.34
2024-02-13T11:30:08.563Z,100206.47
2024-02-13T11:35:11.892Z,100211.75
2024-02-13T11:40:18.494Z,100216.69
2024-02-13T11:45:20.871Z,100217.94
2024-02-13T11:50:22.429Z,100215.84
2024-02-13T11:55:24.114Z,100211.03
2024-02-13T12:00:26.389Z,100216.03
2024-02-13T12:05:29.468Z,100219.69
2024-02-13T12:10:30.928Z,100225.22
2024-02-13T12:15:32.231Z,100227.72
2024-02-13T12:20:34.179Z,100213.28
2024-02-13T12:25:36.647Z,100215.69
2024-02-13T12:30:37.989Z,100206.06
2024-02-13T12:35:45.759Z,100207.28
2024-02-13T12:40:47.553Z,100206.88
2024-02-13T12:45:48.848Z,100209.09
2024-02-13T12:50:50.795Z,100214.31
2024-02-13T12:55:53.771Z,100215.00
2024-02-13T13:00:55.984Z,100206.94
2024-02-13T13:05:58.248Z,100210.78
2024-02-13T13:10:59.670Z,100207.53
2024-02-13T13:16:01.041Z,100204.13
2024-02-13T13:21:03.233Z,100206.50
2024-02-13T13:26:09.849Z,100200.16
2024-02-13T13:31:15.732Z,100211.25
2024-02-13T13:36:18.038Z,100207.06
2024-02-13T13:41:22.492Z,100216.50
2024-02-13T13:46:25.395Z,100210.66
2024-02-13T13:51:29.653Z,100216.41
2024-02-13T13:56:31.896Z,100222.78
2024-02-13T14:01:33.229Z,100230.16
2024-02-13T14:06:34.629Z,100226.28
2024-02-13T14:11:35.964Z,100235.41
2024-02-13T14:16:37.288Z,100228.75
2024-02-13T14:21:38.714Z,100228.19
2024-02-13T14:26:40.076Z,100236.41
2024-02-13T14:31:43.043Z,100250.78
2024-02-13T14:36:46.003Z,100252.09
2024-02-13T14:41:54.657Z,100260.91
2024-02-13T14:46:59.223Z,100257.47
2024-02-13T14:52:01.030Z,100266.63
2024-02-13T14:57:02.441Z,100257.81
2024-02-13T15:02:05.529Z,100258.31
2024-02-13T15:07:06.917Z,100271.25
2024-02-13T15:12:08.611Z,100263.03
2024-02-13T15:17:11.769Z,100265.22
2024-02-13T15:22:13.279Z,100263.53
2024-02-13T15:27:14.603Z,100268.53
2024-02-13T15:32:17.124Z,100268.53
2024-02-13T15:37:36.921Z,100264.22
2024-02-13T15:42:58.774Z,100275.06
2024-02-13T15:48:00.540Z,100270.25
2024-02-13T15:53:02.503Z,100275.59
2024-02-13T15:58:04.445Z,100278.41
2024-02-13T16:03:09.564Z,100283.81
2024-02-13T16:08:11.708Z,100282.88
2024-02-13T16:13:13.265Z,100294.34
2024-02-13T16:18:14.943Z,100303.59
2024-02-13T16:23:16.509Z,100293.13
2024-02-13T16:28:18.145Z,100311.38
2024-02-13T16:33:19.566Z,100316.13
2024-02-13T16:38:20.928Z,100322.91
2024-02-13T16:43:22.839Z,100341.28
2024-02-13T16:48:24.346Z,100330.41
2024-02-13T16:53:25.827Z,100341.72
2024-02-13T16:58:27.186Z,100338.19
2024-02-13T17:03:28.527Z,100340.75
2024-02-13T17:08:30.193Z,100345.22
2024-02-13T17:13:31.527Z,100354.66
2024-02-13T17:18:32.977Z,100360.56
2024-02-13T17:23:35.165Z,100360.94
2024-02-13T17:28:39.946Z,100365.03
2024-02-13T17:33:41.579Z,100359.59
2024-02-13T17:38:43.668Z,100357.78
2024-02-13T17:43:45.006Z,100362.22
2024-02-13T17:48:49.373Z,100358.28
2024-02-13T17:53:50.944Z,100364.47
2024-02-13T17:58:52.392Z,100372.34
2024-02-13T18:03:53.808Z,100368.88
2024-02-13T18:08:55.453Z,100363.28
2024-02-13T18:13:56.804Z,100372.81
2024-02-13T18:18:58.361Z,100372.38
2024-02-13T18:24:02.100Z,100377.94
2024-02-13T18:29:03.765Z,100380.56
2024-02-13T18:34:05.208Z,100372.81
2024-02-13T18:39:06.672Z,100377.94
2024-02-13T18:44:08.017Z,100366.88
2024-02-13T18:49:11.107Z,100379.47
2024-02-13T18:54:13.109Z,100377.47
2024-02-13T18:59:14.640Z,100381.63
2024-02-13T19:04:15.954Z,100393.66
2024-02-13T19:09:17.263Z,100392.00
2024-02-13T19:14:21.585Z,100389.25
2024-02-13T19:19:23.007Z,100391.63
2024-02-13T19:24:24.309Z,100396.63
2024-02-13T19:29:25.637Z,100398.63
2024-02-13T19:34:28.461Z,100402.47
2024-02-13T19:39:30.353Z,100398.41
2024-02-13T19:44:31.674Z,100415.03
2024-02-13T19:49:33.063Z,100418.88
2024-02-13T19:54:34.409Z,100424.38
2024-02-13T19:59:35.764Z,100432.19
2024-02-13T20:04:37.061Z,100436.13
2024-02-13T20:09:38.344Z,100433.88
2024-02-13T20:14:39.724Z,100423.88
2024-02-13T20:19:41.097Z,100426.25
2024-02-13T20:24:42.437Z,100424.00
2024-02-13T20:29:44.893Z,100420.06
2024-02-13T20:34:46.983Z,100422.44
2024-02-13T20:39:48.323Z,100425.41
2024-02-13T20:44:51.396Z,100418.28
2024-02-13T20:49:52.762Z,100416.38
2024-02-13T20:54:54.100Z,100424.22
2024-02-13T20:59:55.451Z,100419.59
2024-02-13T21:04:56.839Z,100419.84
2024-02-13T21:09:58.166Z,100422.09
2024-02-13T21:14:59.636Z,100424.56
2024-02-13T21:20:01.437Z,100427.66
2024-02-13T21:25:03.028Z,100424.56
2024-02-13T21:30:05.322Z,100419.94
2024-02-13T21:35:11.861Z,100417.56
2024-02-13T21:40:14.834Z,100409.72
2024-02-13T21:45:16.214Z,100417.00
2024-02-13T21:50:18.965Z,100405.91
2024-02-13T21:55:20.265Z,100405.91
2024-02-13T22:00:22.948Z,100407.09
2024-02-13T22:05:24.342Z,100413.75
2024-02-13T22:10:25.682Z,100411.16
2024-02-13T22:15:26.960Z,100413.16
2024-02-13T22:20:30.081Z,100409.47
2024-02-13T22:25:31.686Z,100407.34
2024-02-13T22:30:32.985Z,100425.91
2024-02-13T22:35:34.412Z,100408.75
2024-02-13T22:40:35.733Z,100412.31
2024-02-13T22:45:37.041Z,100421.00
2024-02-13T22:50:38.372Z,100420.66
2024-02-13T22:55:39.698Z,100419.94
2024-02-13T23:00:50.839Z,100431.94
2024-02-13T23:05:56.867Z,100429.09
2024-02-13T23:10:58.234Z,100425.31
2024-02-13T23:15:59.625Z,100422.09
2024-02-13T23:21:01.523Z,100422.31
2024-02-13T23:26:02.870Z,100425.66
2024-02-13T23:31:05.717Z,100419.56
2024-02-13T23:36:07.165Z,100420.22
2024-02-13T23:41:08.578Z,100414.59
2024-02-13T23:46:09.864Z,100421.84
2024-02-13T23:51:11.286Z,100424.22
2024-02-13T23:56:15.861Z,100423.06
